Terminal Aerodrome Forecast
Issued by NWS

Home | Current Version | Previous Version | Text Only | Print | Product List | Glossary Off
Versions: 1 2 3 4 5 6 7 8 9 10 11 12 13 14 15 16

076
FTUS43 KICT 170542
TAFRSL
TAF
KRSL 170542Z 1706/1806 33009KT P6SM BKN020
     FM170800 32009KT P6SM BKN035 OVC080
     FM172100 26005KT P6SM SCT100=

USA.gov is the U.S. government's official web portal to all federal, state and local government web resources and services.